createdAt,value
2018-01-27T00:00:41.288Z,1020.81
2018-01-27T00:01:41.285Z,1020.83
2018-01-27T00:02:41.281Z,1020.83
2018-01-27T00:03:41.276Z,1020.82
2018-01-27T00:04:41.271Z,1020.81
2018-01-27T00:05:41.270Z,1020.80
2018-01-27T00:06:41.258Z,1020.77
2018-01-27T00:07:41.261Z,1020.76
2018-01-27T00:08:41.255Z,1020.77
2018-01-27T00:09:41.253Z,1020.81
2018-01-27T00:10:41.245Z,1020.81
2018-01-27T00:11:41.242Z,1020.86
2018-01-27T00:12:41.243Z,1020.85
2018-01-27T00:13:41.242Z,1020.84
2018-01-27T00:14:41.230Z,1020.83
2018-01-27T00:15:41.228Z,1020.94
2018-01-27T00:16:41.218Z,1020.95
2018-01-27T00:17:41.217Z,1020.89
2018-01-27T00:18:41.212Z,1020.90
2018-01-27T00:19:41.207Z,1020.86
2018-01-27T00:20:41.204Z,1020.84
2018-01-27T00:21:41.199Z,1020.88
2018-01-27T00:22:41.198Z,1020.88
2018-01-27T00:23:41.188Z,1020.90
2018-01-27T00:24:41.188Z,1020.91
2018-01-27T00:25:41.181Z,1020.90
2018-01-27T00:26:41.176Z,1020.90
2018-01-27T00:27:41.174Z,1020.91
2018-01-27T00:28:41.168Z,1020.93
2018-01-27T00:29:41.172Z,1020.89
2018-01-27T00:30:41.160Z,1020.90
2018-01-27T00:31:41.156Z,1020.95
2018-01-27T00:32:41.153Z,1020.97
2018-01-27T00:33:41.145Z,1020.94
2018-01-27T00:34:41.139Z,1020.97
2018-01-27T00:35:41.137Z,1020.98
2018-01-27T00:36:41.134Z,1020.96
2018-01-27T00:37:41.130Z,1020.96
2018-01-27T00:38:41.122Z,1020.97
2018-01-27T00:39:41.125Z,1020.96
2018-01-27T00:40:41.119Z,1020.98
2018-01-27T00:41:41.117Z,1021.03
2018-01-27T00:42:41.108Z,1021.01
2018-01-27T00:43:41.098Z,1021.02
2018-01-27T00:44:41.099Z,1021.07
2018-01-27T00:45:41.096Z,1021.05
2018-01-27T00:46:41.091Z,1021.06
2018-01-27T00:47:41.085Z,1021.05
2018-01-27T00:48:41.082Z,1021.05
2018-01-27T00:49:41.082Z,1021.01
2018-01-27T00:50:41.075Z,1021.02
2018-01-27T00:51:41.068Z,1021.00
2018-01-27T00:52:41.064Z,1021.01
2018-01-27T00:53:41.058Z,1020.98
2018-01-27T00:54:41.055Z,1021.00
2018-01-27T00:55:41.051Z,1021.03
2018-01-27T00:56:41.047Z,1021.04
2018-01-27T00:57:41.042Z,1021.02
2018-01-27T00:58:41.040Z,1021.05
2018-01-27T00:59:41.034Z,1021.05
2018-01-27T01:00:41.029Z,1021.05
2018-01-27T01:01:41.025Z,1021.09
2018-01-27T01:02:41.016Z,1021.08
2018-01-27T01:03:41.017Z,1021.06
2018-01-27T01:04:41.008Z,1021.09
2018-01-27T01:05:41.007Z,1021.11
2018-01-27T01:06:41.004Z,1021.12
2018-01-27T01:07:41.000Z,1021.11
2018-01-27T01:08:40.994Z,1021.15
2018-01-27T01:09:40.988Z,1021.17
2018-01-27T01:10:40.989Z,1021.19
2018-01-27T01:11:40.976Z,1021.22
2018-01-27T01:12:40.976Z,1021.24
2018-01-27T01:13:40.975Z,1021.27
2018-01-27T01:14:40.967Z,1021.29
2018-01-27T01:15:40.964Z,1021.29
2018-01-27T01:16:40.959Z,1021.29
2018-01-27T01:17:40.959Z,1021.32
2018-01-27T01:18:40.951Z,1021.31
2018-01-27T01:19:40.946Z,1021.39
2018-01-27T01:20:40.943Z,1021.38
2018-01-27T01:21:40.937Z,1021.38
2018-01-27T01:22:40.934Z,1021.38
2018-01-27T01:23:40.930Z,1021.36
2018-01-27T01:24:40.924Z,1021.38
2018-01-27T01:25:40.922Z,1021.37
2018-01-27T01:26:40.922Z,1021.39
2018-01-27T01:27:40.918Z,1021.42
2018-01-27T01:28:40.959Z,1021.43
2018-01-27T01:29:40.901Z,1021.44
2018-01-27T01:30:40.895Z,1021.41
2018-01-27T01:31:40.894Z,1021.40
2018-01-27T01:32:40.889Z,1021.43
2018-01-27T01:33:40.884Z,1021.36
2018-01-27T01:34:40.882Z,1021.40
2018-01-27T01:35:40.877Z,1021.42
2018-01-27T01:36:40.872Z,1021.43
2018-01-27T01:37:40.864Z,1021.45
2018-01-27T01:38:40.864Z,1021.45
2018-01-27T01:39:40.864Z,1021.45
2018-01-27T01:40:40.854Z,1021.47
2018-01-27T01:41:40.850Z,1021.45
2018-01-27T01:42:40.844Z,1021.41
2018-01-27T01:43:40.842Z,1021.45
2018-01-27T01:44:40.839Z,1021.49
2018-01-27T01:45:40.838Z,1021.48
2018-01-27T01:46:40.827Z,1021.49
2018-01-27T01:47:40.821Z,1021.47
2018-01-27T01:48:40.821Z,1021.48
2018-01-27T01:49:40.814Z,1021.48
2018-01-27T01:50:40.812Z,1021.52
2018-01-27T01:51:40.807Z,1021.57
2018-01-27T01:52:40.799Z,1021.63
2018-01-27T01:53:40.795Z,1021.62
2018-01-27T01:54:40.790Z,1021.63
2018-01-27T01:55:40.787Z,1021.64
2018-01-27T01:56:40.789Z,1021.63
2018-01-27T01:57:40.773Z,1021.68
2018-01-27T01:58:40.773Z,1021.66
2018-01-27T01:59:40.770Z,1021.69
2018-01-27T02:00:40.762Z,1021.68
2018-01-27T02:01:40.760Z,1021.72
2018-01-27T02:02:40.756Z,1021.72
2018-01-27T02:03:40.751Z,1021.74
2018-01-27T02:04:40.746Z,1021.75
2018-01-27T02:05:40.741Z,1021.73
2018-01-27T02:06:40.737Z,1021.72
2018-01-27T02:07:40.730Z,1021.73
2018-01-27T02:08:40.727Z,1021.76
2018-01-27T02:09:40.725Z,1021.73
2018-01-27T02:10:40.720Z,1021.73
2018-01-27T02:11:40.715Z,1021.76
2018-01-27T02:12:40.717Z,1021.73
2018-01-27T02:13:40.709Z,1021.71
2018-01-27T02:14:40.697Z,1021.74
2018-01-27T02:15:40.701Z,1021.75
2018-01-27T02:16:40.691Z,1021.73
2018-01-27T02:17:40.689Z,1021.75
2018-01-27T02:18:40.683Z,1021.75
2018-01-27T02:19:40.677Z,1021.76
2018-01-27T02:20:40.673Z,1021.77
2018-01-27T02:21:40.674Z,1021.76
2018-01-27T02:22:40.668Z,1021.80
2018-01-27T02:23:40.660Z,1021.81
2018-01-27T02:24:40.661Z,1021.83
2018-01-27T02:25:40.652Z,1021.84
2018-01-27T02:26:40.647Z,1021.85
2018-01-27T02:27:40.644Z,1021.86
2018-01-27T02:28:40.637Z,1021.85
2018-01-27T02:29:40.633Z,1021.85
2018-01-27T02:30:40.633Z,1021.90
2018-01-27T02:31:40.622Z,1021.92
2018-01-27T02:32:40.618Z,1021.92
2018-01-27T02:33:40.613Z,1021.88
2018-01-27T02:34:40.608Z,1021.91
2018-01-27T02:35:40.605Z,1021.90
2018-01-27T02:36:40.600Z,1021.88
2018-01-27T02:37:40.595Z,1021.94
2018-01-27T02:38:40.600Z,1021.95
2018-01-27T02:39:40.590Z,1021.96
2018-01-27T02:40:40.580Z,1021.97
2018-01-27T02:41:40.575Z,1021.99
2018-01-27T02:42:40.564Z,1021.99
2018-01-27T02:43:40.568Z,1021.98
2018-01-27T02:44:40.558Z,1021.98
2018-01-27T02:45:40.555Z,1021.95
2018-01-27T02:46:40.549Z,1022.01
2018-01-27T02:47:40.545Z,1021.96
2018-01-27T02:48:40.542Z,1021.99
2018-01-27T02:49:40.538Z,1022.00
2018-01-27T02:50:40.530Z,1021.99
2018-01-27T02:51:40.521Z,1021.99
2018-01-27T02:52:40.521Z,1022.03
2018-01-27T02:53:40.532Z,1022.03
2018-01-27T02:54:40.509Z,1022.04
2018-01-27T02:55:40.505Z,1022.04
2018-01-27T02:56:40.500Z,1022.08
2018-01-27T02:57:40.494Z,1022.09
2018-01-27T02:58:40.491Z,1022.06
2018-01-27T02:59:40.487Z,1022.10
2018-01-27T03:00:40.477Z,1022.06
2018-01-27T03:01:40.474Z,1022.11
2018-01-27T03:02:40.468Z,1022.13
2018-01-27T03:03:40.463Z,1022.17
2018-01-27T03:04:40.459Z,1022.14
2018-01-27T03:05:40.458Z,1022.13
2018-01-27T03:06:40.453Z,1022.15
2018-01-27T03:07:40.442Z,1022.11
2018-01-27T03:08:40.441Z,1022.16
2018-01-27T03:09:40.434Z,1022.15
2018-01-27T03:10:40.427Z,1022.13
2018-01-27T03:11:40.423Z,1022.14
2018-01-27T03:12:40.419Z,1022.16
2018-01-27T03:13:40.412Z,1022.16
2018-01-27T03:14:40.407Z,1022.19
2018-01-27T03:15:40.408Z,1022.16
2018-01-27T03:16:40.393Z,1022.23
2018-01-27T03:17:40.394Z,1022.24
2018-01-27T03:18:40.388Z,1022.24
2018-01-27T03:19:40.382Z,1022.27
2018-01-27T03:20:40.379Z,1022.28
2018-01-27T03:21:40.374Z,1022.29
2018-01-27T03:22:40.367Z,1022.29
2018-01-27T03:23:40.363Z,1022.29
2018-01-27T03:24:40.363Z,1022.31
2018-01-27T03:25:40.353Z,1022.31
2018-01-27T03:26:40.344Z,1022.31
2018-01-27T03:27:40.344Z,1022.34
2018-01-27T03:28:40.337Z,1022.37
2018-01-27T03:29:40.335Z,1022.36
2018-01-27T03:30:40.326Z,1022.39
2018-01-27T03:31:40.324Z,1022.40
2018-01-27T03:32:40.317Z,1022.46
2018-01-27T03:33:40.314Z,1022.49
2018-01-27T03:34:40.305Z,1022.47
2018-01-27T03:35:40.300Z,1022.52
2018-01-27T03:36:40.301Z,1022.52
2018-01-27T03:37:40.297Z,1022.56
2018-01-27T03:38:40.287Z,1022.54
2018-01-27T03:39:40.283Z,1022.55
2018-01-27T03:40:40.283Z,1022.61
2018-01-27T03:41:40.273Z,1022.64
2018-01-27T03:42:40.268Z,1022.65
2018-01-27T03:43:40.261Z,1022.68
2018-01-27T03:44:40.255Z,1022.67
2018-01-27T03:45:40.251Z,1022.72
2018-01-27T03:46:40.246Z,1022.72
2018-01-27T03:47:40.242Z,1022.75
2018-01-27T03:48:40.237Z,1022.70
2018-01-27T03:49:40.242Z,1022.73
2018-01-27T03:50:40.226Z,1022.73
2018-01-27T03:51:40.221Z,1022.77
2018-01-27T03:52:40.213Z,1022.77
2018-01-27T03:53:40.208Z,1022.84
2018-01-27T03:54:40.204Z,1022.81
2018-01-27T03:55:40.201Z,1022.81
2018-01-27T03:56:40.200Z,1022.79
2018-01-27T03:57:40.192Z,1022.82
2018-01-27T03:58:40.190Z,1022.85
2018-01-27T03:59:40.181Z,1022.84
2018-01-27T04:00:40.175Z,1022.85
2018-01-27T04:01:40.169Z,1022.87
2018-01-27T04:02:40.164Z,1022.85
2018-01-27T04:03:40.168Z,1022.84
2018-01-27T04:04:40.161Z,1022.85
2018-01-27T04:05:40.154Z,1022.89
2018-01-27T04:06:40.150Z,1022.88
2018-01-27T04:07:40.141Z,1022.89
2018-01-27T04:08:40.136Z,1022.91
2018-01-27T04:09:40.128Z,1022.90
2018-01-27T04:10:40.125Z,1022.90
2018-01-27T04:11:40.120Z,1022.95
2018-01-27T04:12:40.121Z,1022.91
2018-01-27T04:13:40.109Z,1022.92
2018-01-27T04:14:40.108Z,1022.90
2018-01-27T04:15:40.106Z,1022.85
2018-01-27T04:16:40.095Z,1022.89
2018-01-27T04:17:40.092Z,1022.90
2018-01-27T04:18:40.082Z,1022.89
2018-01-27T04:19:40.078Z,1022.88
2018-01-27T04:20:40.073Z,1022.91
2018-01-27T04:21:40.070Z,1022.93
2018-01-27T04:22:40.064Z,1022.95
2018-01-27T04:23:40.060Z,1022.93
2018-01-27T04:24:40.057Z,1022.93
2018-01-27T04:25:40.050Z,1022.97
2018-01-27T04:26:40.048Z,1022.97
2018-01-27T04:27:40.037Z,1023.01
2018-01-27T04:28:40.089Z,1023.01
2018-01-27T04:29:40.029Z,1023.02
2018-01-27T04:30:40.024Z,1023.03
2018-01-27T04:31:40.019Z,1023.04
2018-01-27T04:32:40.017Z,1023.04
2018-01-27T04:33:40.009Z,1023.08
2018-01-27T04:34:40.004Z,1023.08
2018-01-27T04:35:39.998Z,1023.06
2018-01-27T04:36:39.992Z,1023.05
2018-01-27T04:37:39.988Z,1023.05
2018-01-27T04:38:39.984Z,1023.09
2018-01-27T04:39:39.980Z,1023.09
2018-01-27T04:40:39.973Z,1023.12
2018-01-27T04:41:39.976Z,1023.10
2018-01-27T04:42:39.965Z,1023.11
2018-01-27T04:43:39.957Z,1023.14
2018-01-27T04:44:39.952Z,1023.12
2018-01-27T04:45:39.947Z,1023.16
2018-01-27T04:46:39.943Z,1023.13
2018-01-27T04:47:39.937Z,1023.14
2018-01-27T04:48:39.932Z,1023.14
2018-01-27T04:49:39.928Z,1023.21
2018-01-27T04:50:39.924Z,1023.21
2018-01-27T04:51:39.917Z,1023.20
2018-01-27T04:52:39.912Z,1023.24
2018-01-27T04:53:39.903Z,1023.22
2018-01-27T04:54:39.903Z,1023.25
2018-01-27T04:55:39.901Z,1023.28
2018-01-27T04:56:39.891Z,1023.29
2018-01-27T04:57:39.891Z,1023.30
2018-01-27T04:58:39.885Z,1023.32
2018-01-27T04:59:39.878Z,1023.30
2018-01-27T05:00:39.874Z,1023.30
2018-01-27T05:01:39.867Z,1023.29
2018-01-27T05:02:39.862Z,1023.36
2018-01-27T05:03:39.857Z,1023.32
2018-01-27T05:04:39.867Z,1023.32
2018-01-27T05:05:39.847Z,1023.37
2018-01-27T05:06:39.843Z,1023.36
2018-01-27T05:07:39.843Z,1023.38
2018-01-27T05:08:39.830Z,1023.39
2018-01-27T05:09:39.828Z,1023.39
2018-01-27T05:10:39.824Z,1023.39
2018-01-27T05:11:39.814Z,1023.41
2018-01-27T05:12:39.812Z,1023.43
2018-01-27T05:13:39.812Z,1023.42
2018-01-27T05:14:39.800Z,1023.43
2018-01-27T05:15:39.798Z,1023.43
2018-01-27T05:16:39.791Z,1023.48
2018-01-27T05:17:39.789Z,1023.42
2018-01-27T05:18:39.780Z,1023.45
2018-01-27T05:19:39.773Z,1023.49
2018-01-27T05:20:39.770Z,1023.49
2018-01-27T05:21:39.766Z,1023.49
2018-01-27T05:22:39.766Z,1023.52
2018-01-27T05:23:39.755Z,1023.51
2018-01-27T05:24:39.751Z,1023.55
2018-01-27T05:25:39.745Z,1023.54
2018-01-27T05:26:39.737Z,1023.57
2018-01-27T05:27:39.735Z,1023.59
2018-01-27T05:28:39.727Z,1023.62
2018-01-27T05:29:39.726Z,1023.62
2018-01-27T05:30:39.717Z,1023.62
2018-01-27T05:31:39.716Z,1023.65
2018-01-27T05:32:39.707Z,1023.65
2018-01-27T05:33:39.702Z,1023.63
2018-01-27T05:34:39.751Z,1023.71
2018-01-27T05:35:39.701Z,1023.70
2018-01-27T05:36:39.682Z,1023.69
2018-01-27T05:37:39.679Z,1023.73
2018-01-27T05:38:39.676Z,1023.77
2018-01-27T05:39:39.669Z,1023.80
2018-01-27T05:40:39.672Z,1023.79
2018-01-27T05:41:39.661Z,1023.83
2018-01-27T05:42:39.653Z,1023.87
2018-01-27T05:43:39.649Z,1023.86
2018-01-27T05:44:39.653Z,1023.86
2018-01-27T05:45:39.637Z,1023.83
2018-01-27T05:46:39.631Z,1023.90
2018-01-27T05:47:39.626Z,1023.92
2018-01-27T05:48:39.621Z,1023.88
2018-01-27T05:49:39.617Z,1023.91
2018-01-27T05:50:39.611Z,1023.92
2018-01-27T05:51:39.607Z,1023.94
2018-01-27T05:52:39.603Z,1023.95
2018-01-27T05:53:39.592Z,1023.95
2018-01-27T05:54:39.589Z,1023.98
2018-01-27T05:55:39.584Z,1023.97
2018-01-27T05:56:39.583Z,1024.02
2018-01-27T05:57:39.572Z,1024.02
2018-01-27T05:58:39.573Z,1024.05
2018-01-27T05:59:39.560Z,1024.06
2018-01-27T06:00:39.556Z,1024.07
2018-01-27T06:01:39.552Z,1024.15
2018-01-27T06:02:39.547Z,1024.16
2018-01-27T06:03:39.542Z,1024.13
2018-01-27T06:04:39.536Z,1024.17
2018-01-27T06:05:39.533Z,1024.20
2018-01-27T06:06:39.525Z,1024.22
2018-01-27T06:07:39.521Z,1024.26
2018-01-27T06:08:39.513Z,1024.28
2018-01-27T06:09:39.512Z,1024.30
2018-01-27T06:10:39.500Z,1024.31
2018-01-27T06:11:39.500Z,1024.33
2018-01-27T06:12:39.494Z,1024.31
2018-01-27T06:13:39.494Z,1024.32
2018-01-27T06:14:39.484Z,1024.34
2018-01-27T06:15:39.479Z,1024.34
2018-01-27T06:16:39.474Z,1024.40
2018-01-27T06:17:39.467Z,1024.41
2018-01-27T06:18:39.489Z,1024.43
2018-01-27T06:19:39.453Z,1024.43
2018-01-27T06:20:39.452Z,1024.44
2018-01-27T06:21:39.447Z,1024.48
2018-01-27T06:22:39.442Z,1024.48
2018-01-27T06:23:39.435Z,1024.43
2018-01-27T06:24:39.438Z,1024.43
2018-01-27T06:25:39.425Z,1024.46
2018-01-27T06:26:39.419Z,1024.45
2018-01-27T06:27:39.410Z,1024.47
2018-01-27T06:28:39.409Z,1024.46
2018-01-27T06:29:39.409Z,1024.48
2018-01-27T06:30:39.399Z,1024.48
2018-01-27T06:31:39.392Z,1024.51
2018-01-27T06:32:39.390Z,1024.52
2018-01-27T06:33:39.385Z,1024.53
2018-01-27T06:34:39.378Z,1024.51
2018-01-27T06:35:39.372Z,1024.56
2018-01-27T06:36:39.365Z,1024.58
2018-01-27T06:37:39.369Z,1024.57
2018-01-27T06:38:39.357Z,1024.57
2018-01-27T06:39:39.352Z,1024.58
2018-01-27T06:40:39.379Z,1024.63
2018-01-27T06:41:39.347Z,1024.66
2018-01-27T06:42:39.338Z,1024.61
2018-01-27T06:43:39.330Z,1024.66
2018-01-27T06:44:39.327Z,1024.66
2018-01-27T06:45:39.321Z,1024.67
2018-01-27T06:46:39.316Z,1024.70
2018-01-27T06:47:39.311Z,1024.69
2018-01-27T06:48:39.307Z,1024.69
2018-01-27T06:49:39.301Z,1024.68
2018-01-27T06:50:39.295Z,1024.69
2018-01-27T06:51:39.294Z,1024.71
2018-01-27T06:52:39.287Z,1024.72
2018-01-27T06:53:39.279Z,1024.74
2018-01-27T06:54:39.275Z,1024.76
2018-01-27T06:55:39.267Z,1024.80
2018-01-27T06:56:39.279Z,1024.82
2018-01-27T06:57:39.264Z,1024.84
2018-01-27T06:58:39.256Z,1024.86
2018-01-27T06:59:39.251Z,1024.89
2018-01-27T07:00:39.246Z,1024.90
2018-01-27T07:01:39.239Z,1024.93
2018-01-27T07:02:39.233Z,1024.97
2018-01-27T07:03:39.229Z,1024.97
2018-01-27T07:04:39.220Z,1024.99
2018-01-27T07:05:39.217Z,1024.97
2018-01-27T07:06:39.211Z,1025.04
2018-01-27T07:07:39.214Z,1025.05
2018-01-27T07:08:39.200Z,1025.06
2018-01-27T07:09:39.199Z,1025.05
2018-01-27T07:10:39.185Z,1025.07
2018-01-27T07:11:39.185Z,1025.09
2018-01-27T07:12:39.179Z,1025.11
2018-01-27T07:13:39.175Z,1025.07
2018-01-27T07:14:39.168Z,1025.11
2018-01-27T07:15:39.167Z,1025.10
2018-01-27T07:16:39.158Z,1025.14
2018-01-27T07:17:39.154Z,1025.14
2018-01-27T07:18:39.152Z,1025.19
2018-01-27T07:19:39.140Z,1025.16
2018-01-27T07:20:39.139Z,1025.18
2018-01-27T07:21:39.136Z,1025.19
2018-01-27T07:22:39.129Z,1025.22
2018-01-27T07:23:39.122Z,1025.20
2018-01-27T07:24:39.124Z,1025.23
2018-01-27T07:25:39.113Z,1025.24
2018-01-27T07:26:39.107Z,1025.25
2018-01-27T07:27:39.107Z,1025.28
2018-01-27T07:28:39.095Z,1025.31
2018-01-27T07:29:39.092Z,1025.34
2018-01-27T07:30:39.086Z,1025.33
2018-01-27T07:31:39.086Z,1025.37
2018-01-27T07:32:39.075Z,1025.40
2018-01-27T07:33:39.080Z,1025.46
2018-01-27T07:34:39.064Z,1025.45
2018-01-27T07:35:39.060Z,1025.45
2018-01-27T07:36:39.049Z,1025.49
2018-01-27T07:37:39.049Z,1025.50
2018-01-27T07:38:39.043Z,1025.48
2018-01-27T07:39:39.038Z,1025.48
2018-01-27T07:40:39.033Z,1025.49
2018-01-27T07:41:39.033Z,1025.51
2018-01-27T07:42:39.023Z,1025.48
2018-01-27T07:43:39.016Z,1025.49
2018-01-27T07:44:39.007Z,1025.52
2018-01-27T07:45:39.005Z,1025.55
2018-01-27T07:46:39.001Z,1025.54
2018-01-27T07:47:38.995Z,1025.58
2018-01-27T07:48:38.991Z,1025.64
2018-01-27T07:49:38.988Z,1025.63
2018-01-27T07:50:38.978Z,1025.63
2018-01-27T07:51:38.974Z,1025.66
2018-01-27T07:52:38.968Z,1025.64
2018-01-27T07:53:38.961Z,1025.67
2018-01-27T07:54:38.957Z,1025.70
2018-01-27T07:55:38.953Z,1025.70
2018-01-27T07:56:38.947Z,1025.74
2018-01-27T07:57:38.941Z,1025.77
2018-01-27T07:58:38.968Z,1025.77
2018-01-27T07:59:38.931Z,1025.77
2018-01-27T08:00:38.927Z,1025.81
2018-01-27T08:01:38.920Z,1025.79
2018-01-27T08:02:38.914Z,1025.78
2018-01-27T08:03:38.908Z,1025.76
2018-01-27T08:04:38.903Z,1025.80
2018-01-27T08:05:38.898Z,1025.82
2018-01-27T08:06:38.892Z,1025.81
2018-01-27T08:07:38.887Z,1025.80
2018-01-27T08:08:38.885Z,1025.82
2018-01-27T08:09:38.877Z,1025.79
2018-01-27T08:10:38.869Z,1025.79
2018-01-27T08:11:38.867Z,1025.81
2018-01-27T08:12:38.861Z,1025.84
2018-01-27T08:13:38.855Z,1025.84
2018-01-27T08:14:38.849Z,1025.82
2018-01-27T08:15:38.842Z,1025.83
2018-01-27T08:16:38.839Z,1025.79
2018-01-27T08:17:38.833Z,1025.78
2018-01-27T08:18:38.828Z,1025.78
2018-01-27T08:19:38.822Z,1025.81
2018-01-27T08:20:38.820Z,1025.86
2018-01-27T08:21:38.813Z,1025.81
2018-01-27T08:22:38.807Z,1025.83
2018-01-27T08:23:38.801Z,1025.82
2018-01-27T08:24:38.801Z,1025.84
2018-01-27T08:25:38.793Z,1025.86
2018-01-27T08:26:38.785Z,1025.86
2018-01-27T08:27:38.790Z,1025.89
2018-01-27T08:28:38.776Z,1025.90
2018-01-27T08:29:38.775Z,1025.90
2018-01-27T08:30:38.764Z,1025.85
2018-01-27T08:31:38.761Z,1025.90
2018-01-27T08:32:38.756Z,1025.87
2018-01-27T08:33:38.754Z,1025.86
2018-01-27T08:34:38.745Z,1025.85
2018-01-27T08:35:38.740Z,1025.88
2018-01-27T08:36:38.731Z,1025.87
2018-01-27T08:37:38.729Z,1025.88
2018-01-27T08:38:38.723Z,1025.87
2018-01-27T08:39:38.722Z,1025.90
2018-01-27T08:40:38.714Z,1025.92
2018-01-27T08:41:38.710Z,1025.92
2018-01-27T08:42:38.705Z,1025.89
2018-01-27T08:43:38.698Z,1025.90
2018-01-27T08:44:38.691Z,1025.95
2018-01-27T08:45:38.687Z,1025.96
2018-01-27T08:46:38.687Z,1025.98
2018-01-27T08:47:38.683Z,1025.96
2018-01-27T08:48:38.669Z,1025.98
2018-01-27T08:49:38.670Z,1025.99
2018-01-27T08:50:38.665Z,1025.98
2018-01-27T08:51:38.658Z,1026.03
2018-01-27T08:52:38.663Z,1026.05
2018-01-27T08:53:38.647Z,1026.07
2018-01-27T08:54:38.643Z,1026.06
2018-01-27T08:55:38.640Z,1026.06
2018-01-27T08:56:38.634Z,1026.09
2018-01-27T08:57:38.629Z,1026.06
2018-01-27T08:58:38.624Z,1026.06
2018-01-27T08:59:38.619Z,1026.04
2018-01-27T09:00:38.616Z,1026.07
2018-01-27T09:01:38.609Z,1026.09
2018-01-27T09:02:38.604Z,1026.10
2018-01-27T09:03:38.599Z,1026.13
2018-01-27T09:04:38.600Z,1026.14
2018-01-27T09:05:38.588Z,1026.15
2018-01-27T09:06:38.584Z,1026.17
2018-01-27T09:07:38.583Z,1026.15
2018-01-27T09:08:38.575Z,1026.15
2018-01-27T09:09:38.572Z,1026.13
2018-01-27T09:10:38.568Z,1026.10
2018-01-27T09:11:38.561Z,1026.11
2018-01-27T09:12:38.587Z,1026.09
2018-01-27T09:13:38.551Z,1026.10
2018-01-27T09:14:38.544Z,1026.04
2018-01-27T09:15:38.541Z,1026.07
2018-01-27T09:16:38.536Z,1026.09
2018-01-27T09:17:38.532Z,1026.11
2018-01-27T09:18:38.528Z,1026.12
2018-01-27T09:19:38.524Z,1026.12
2018-01-27T09:20:38.518Z,1026.18
2018-01-27T09:21:38.512Z,1026.20
2018-01-27T09:22:38.507Z,1026.20
2018-01-27T09:23:38.502Z,1026.24
2018-01-27T09:24:38.502Z,1026.26
2018-01-27T09:25:38.495Z,1026.22
2018-01-27T09:26:38.489Z,1026.24
2018-01-27T09:27:38.485Z,1026.29
2018-01-27T09:28:38.486Z,1026.25
2018-01-27T09:29:38.476Z,1026.29
2018-01-27T09:30:38.470Z,1026.29
2018-01-27T09:31:38.469Z,1026.26
2018-01-27T09:32:38.463Z,1026.26
2018-01-27T09:33:38.456Z,1026.28
2018-01-27T09:34:38.454Z,1026.32
2018-01-27T09:35:38.449Z,1026.34
2018-01-27T09:36:38.443Z,1026.36
2018-01-27T09:37:38.440Z,1026.36
2018-01-27T09:38:38.434Z,1026.37
2018-01-27T09:39:38.430Z,1026.43
2018-01-27T09:40:38.424Z,1026.43
2018-01-27T09:41:38.419Z,1026.41
2018-01-27T09:42:38.452Z,1026.41
2018-01-27T09:43:38.414Z,1026.40
2018-01-27T09:44:38.407Z,1026.41
2018-01-27T09:45:38.403Z,1026.37
2018-01-27T09:46:38.399Z,1026.40
2018-01-27T09:47:38.392Z,1026.43
2018-01-27T09:48:38.388Z,1026.45
2018-01-27T09:49:38.384Z,1026.46
2018-01-27T09:50:38.380Z,1026.49
2018-01-27T09:51:38.376Z,1026.46
2018-01-27T09:52:38.378Z,1026.44
2018-01-27T09:53:38.369Z,1026.44
2018-01-27T09:54:38.365Z,1026.44
2018-01-27T09:55:38.358Z,1026.44
2018-01-27T09:56:38.351Z,1026.39
2018-01-27T09:57:38.353Z,1026.43
2018-01-27T09:58:38.343Z,1026.43
2018-01-27T09:59:38.337Z,1026.39
2018-01-27T10:00:38.336Z,1026.39
2018-01-27T10:01:38.333Z,1026.39
2018-01-27T10:02:38.330Z,1026.35
2018-01-27T10:03:38.320Z,1026.37
2018-01-27T10:04:38.317Z,1026.34
2018-01-27T10:05:38.315Z,1026.33
2018-01-27T10:06:38.307Z,1026.37
2018-01-27T10:07:38.304Z,1026.43
2018-01-27T10:08:38.299Z,1026.41
2018-01-27T10:09:38.296Z,1026.41
2018-01-27T10:10:38.290Z,1026.41
2018-01-27T10:11:38.284Z,1026.45
2018-01-27T10:12:38.279Z,1026.41
2018-01-27T10:13:38.308Z,1026.43
2018-01-27T10:14:38.270Z,1026.48
2018-01-27T10:15:38.268Z,1026.49
2018-01-27T10:16:38.264Z,1026.47
2018-01-27T10:17:38.258Z,1026.48
2018-01-27T10:18:38.254Z,1026.48
2018-01-27T10:19:38.250Z,1026.44
2018-01-27T10:20:38.245Z,1026.49
2018-01-27T10:21:38.248Z,1026.49
2018-01-27T10:22:38.235Z,1026.45
2018-01-27T10:23:38.237Z,1026.45
2018-01-27T10:24:38.228Z,1026.46
2018-01-27T10:25:38.224Z,1026.44
2018-01-27T10:26:38.221Z,1026.40
2018-01-27T10:27:38.214Z,1026.39
2018-01-27T10:28:38.211Z,1026.44
2018-01-27T10:29:38.206Z,1026.46
2018-01-27T10:30:38.202Z,1026.41
2018-01-27T10:31:38.201Z,1026.49
2018-01-27T10:32:38.194Z,1026.51
2018-01-27T10:33:38.189Z,1026.51
2018-01-27T10:34:38.185Z,1026.54
2018-01-27T10:35:38.180Z,1026.53
2018-01-27T10:36:38.176Z,1026.52
2018-01-27T10:37:38.183Z,1026.52
2018-01-27T10:38:38.167Z,1026.55
2018-01-27T10:39:38.164Z,1026.57
2018-01-27T10:40:38.162Z,1026.55
2018-01-27T10:41:38.156Z,1026.53
2018-01-27T10:42:38.150Z,1026.55
2018-01-27T10:43:38.147Z,1026.60
2018-01-27T10:44:38.142Z,1026.58
2018-01-27T10:45:38.139Z,1026.61
2018-01-27T10:46:38.136Z,1026.63
2018-01-27T10:47:38.132Z,1026.65
2018-01-27T10:48:38.132Z,1026.66
2018-01-27T10:49:38.121Z,1026.63
2018-01-27T10:50:38.116Z,1026.66
2018-01-27T10:51:38.115Z,1026.69
2018-01-27T10:52:38.104Z,1026.60
2018-01-27T10:53:38.101Z,1026.65
2018-01-27T10:54:38.097Z,1026.65
2018-01-27T10:55:38.098Z,1026.69
2018-01-27T10:56:38.090Z,1026.71
2018-01-27T10:57:38.083Z,1026.71
2018-01-27T10:58:38.080Z,1026.70
2018-01-27T10:59:38.074Z,1026.73
2018-01-27T11:00:38.074Z,1026.78
2018-01-27T11:01:38.067Z,1026.77
2018-01-27T11:02:38.065Z,1026.82
2018-01-27T11:03:38.056Z,1026.81
2018-01-27T11:04:38.052Z,1026.79
2018-01-27T11:05:38.047Z,1026.83
2018-01-27T11:06:38.040Z,1026.88
2018-01-27T11:07:38.038Z,1026.89
2018-01-27T11:08:38.137Z,1026.82
2018-01-27T11:09:38.029Z,1026.87
2018-01-27T11:10:38.022Z,1026.90
2018-01-27T11:11:38.018Z,1026.91
2018-01-27T11:12:38.013Z,1026.93
2018-01-27T11:13:38.009Z,1026.92
2018-01-27T11:14:38.008Z,1026.94
2018-01-27T11:15:37.997Z,1026.92
2018-01-27T11:16:37.994Z,1026.95
2018-01-27T11:17:37.990Z,1026.95
2018-01-27T11:18:37.983Z,1026.95
2018-01-27T11:19:37.980Z,1026.96
2018-01-27T11:20:37.974Z,1026.97
2018-01-27T11:21:37.971Z,1026.97
2018-01-27T11:22:37.964Z,1026.97
2018-01-27T11:23:37.961Z,1026.99
2018-01-27T11:24:37.954Z,1026.97
2018-01-27T11:25:37.949Z,1026.92
2018-01-27T11:26:37.946Z,1026.91
2018-01-27T11:27:37.938Z,1026.91
2018-01-27T11:28:37.933Z,1026.88
2018-01-27T11:29:37.932Z,1026.82
2018-01-27T11:30:37.925Z,1026.80
2018-01-27T11:31:37.926Z,1026.78
2018-01-27T11:32:37.916Z,1026.80
2018-01-27T11:33:37.911Z,1026.80
2018-01-27T11:34:37.905Z,1026.81
2018-01-27T11:35:37.902Z,1026.88
2018-01-27T11:36:37.896Z,1026.85
2018-01-27T11:37:37.891Z,1026.90
2018-01-27T11:38:37.887Z,1026.84
2018-01-27T11:39:37.882Z,1026.87
2018-01-27T11:40:37.879Z,1026.85
2018-01-27T11:41:37.875Z,1026.88
2018-01-27T11:42:37.878Z,1026.87
2018-01-27T11:43:37.863Z,1026.81
2018-01-27T11:44:37.859Z,1026.83
2018-01-27T11:45:37.854Z,1026.83
2018-01-27T11:46:37.849Z,1026.82
2018-01-27T11:47:37.845Z,1026.77
2018-01-27T11:48:37.839Z,1026.80
2018-01-27T11:49:37.850Z,1026.86
2018-01-27T11:50:37.830Z,1026.84
2018-01-27T11:51:37.829Z,1026.86
2018-01-27T11:52:37.821Z,1026.82
2018-01-27T11:53:37.817Z,1026.80
2018-01-27T11:54:37.814Z,1026.80
2018-01-27T11:55:37.805Z,1026.75
2018-01-27T11:56:37.802Z,1026.77
2018-01-27T11:57:37.797Z,1026.71
2018-01-27T11:58:37.798Z,1026.73
2018-01-27T11:59:37.788Z,1026.70
2018-01-27T12:00:37.783Z,1026.70
2018-01-27T12:01:37.780Z,1026.71
2018-01-27T12:02:37.772Z,1026.70
2018-01-27T12:03:37.771Z,1026.64
2018-01-27T12:04:37.761Z,1026.66
2018-01-27T12:05:37.762Z,1026.66